Hampton, NH (03842)

6:48 PM EST on December 02, 2016 (GMT -0500)
Towle Farm | | Change Station

Elev 56 ft 42.94 °N, 70.85 °W | Updated 7 minutes ago

Scattered Clouds
Scattered Clouds
42.9 °F
Feels Like 43 °F
N
1.0
Wind Variable Wind from WSW
Gusts 6.0 mph

Today
High -- | Low -- °F
--% Chance of Precip.
Yesterday
High -- | Low -- °F
Precip. -- in
Pressure 29.70 in
Visibility 10.0 miles
Clouds Few 6000 ft
Scattered Clouds 11000 ft
Windchill 43 °F
Dew Point 32 °F
Humidity 65%
Rainfall 0.00 in
Snow Depth Not available.
6:56 AM 4:09 PM
Waxing Crescent, 11% visible
METAR KPSM 022258Z 25008KT 10SM FEW060 SCT110 07/M01 A2969 RMK AO2A SLP057 T00711011 CHINO RWY16 $
Pressure 29.70 in
Visibility 10.0 miles
Clouds Few 6000 ft
Scattered Clouds 11000 ft
Windchill 43 °F
Dew Point 32 °F
Humidity 65%
Rainfall 0.00 in
Snow Depth Not available.
6:56 AM 4:09 PM
Waxing Crescent, 11% visible
METAR KPSM 022258Z 25008KT 10SM FEW060 SCT110 07/M01 A2969 RMK AO2A SLP057 T00711011 CHINO RWY16 $

10-Day Weather Forecast

Almanac

Astronomy

Dec. 02, 2016 Rise Set
Actual Time
Civil Twilight
Nautical Twilight
Astronomical Twilight
Moon
Length of Visible Light
Length of Day
Tomorrow will be .
, % of the Moon is Illuminated

Today's Extremes

State Highs State Lows

Community

WunderPhotos

Upload Photos

1,955,379 photos uploaded!

WunderBlog® & News

Nearby

Air Quality

  Air Quality AQ Index Pollutant
Not available.

Snow Depth

Station Depth Elevation

Earthquake Activity

City Distance Mag. Time & Date
Minimum magnitude displayed is 2.5.

Coastal Water Temperatures

Place Temperature

Stations

Nearby Weather Stations

Station Location Temp. Windchill Dew Point Humidity Wind Precip. Elev Updated Type
                   

Watches & Warnings

There are currently no watches in effect.